This is the latest recevied weather packets stored in our database for station/object W4TBD-13. If no packets are shown the sender has not sent any weather packets the latest 10 day(s).
| Time | Temp. | Humidity | Pressure | Rain* | Wind** | Luminosity | Snow |
|---|---|---|---|---|---|---|---|
| 1777436404 | 14.44° C | 86% | 1007.4 hPa | 0 mm | - | 0 W/m² | - |
| 1777436103 | 14.44° C | 87% | 1007.6 hPa | 0 mm | - | 0 W/m² | - |
| 1777432204 | 13.89° C | 94% | 1008.2 hPa | 0 mm | - | 0 W/m² | - |
| 1777430406 | 13.33° C | 93% | 1008 hPa | 0 mm | - | 0 W/m² | - |
| 1777425904 | 14.44° C | 90% | 1007.4 hPa | 0 mm | - | 0 W/m² | - |
| 1777425603 | 15° C | 89% | 1007.3 hPa | 0 mm | - | 0 W/m² | - |
| 1777422605 | 16.11° C | 82% | 1006.2 hPa | 0 mm | - | 0 W/m² | - |
| 1777422005 | 16.11° C | 81% | 1006.4 hPa | 0 mm | - | 0 W/m² | - |
| 1777420804 | 16.67° C | 79% | 1006.4 hPa | 0 mm | - | 0 W/m² | - |
| 1777418705 | 17.78° C | 77% | 1007.1 hPa | 0 mm | - | 0 W/m² | - |
| 1777418405 | 17.78° C | 76% | 1007 hPa | 0 mm | - | 0 W/m² | - |
| 1777417506 | 17.78° C | 76% | 1007.4 hPa | 0 mm | - | 0 W/m² | - |
| 1777417205 | 17.78° C | 75% | 1007.3 hPa | 0 mm | - | 0 W/m² | - |
| 1777416605 | 18.33° C | 75% | 1007.4 hPa | 0 mm | - | 0 W/m² | - |
| 1777416006 | 18.33° C | 74% | 1007.5 hPa | 0 mm | - | 0 W/m² | - |
| 1777415106 | 18.33° C | 73% | 1007.4 hPa | 0 mm | - | 0 W/m² | - |
| 1777413605 | 18.33° C | 72% | 1007.1 hPa | 0 mm | - | 0 W/m² | - |
| 1777412404 | 18.33° C | 72% | 1007.3 hPa | 0 mm | - | 0 W/m² | - |
| 1777405205 | 18.89° C | 68% | 1008.1 hPa | 0 mm | - | 0 W/m² | - |
| 1777404604 | 18.33° C | 68% | 1008.5 hPa | 0 mm | - | 0 W/m² | - |
| 1777399504 | 18.89° C | 61% | 1009.2 hPa | 0 mm | - | 0 W/m² | - |
| 1777395905 | 16.67° C | 67% | 1009.5 hPa | 0 mm | - | 135 W/m² | - |
| 1777395005 | 16.11° C | 69% | 1010.3 hPa | 0 mm | - | 170 W/m² | - |
| 1777391704 | 13.33° C | 76% | 1011.8 hPa | 0 mm | - | 98 W/m² | - |
| 1777388104 | 11.67° C | 79% | 1009.6 hPa | 0 mm | - | 49 W/m² | - |
* Rain latest hour (hover to see other rain measurements)
** Current wind speed in m/s (hover to see current wind gust speed)